Terminal Aerodrome Forecast
Issued by NWS

Home | Current Version | Previous Version | Text Only | Print | Product List | Glossary On
Versions: 1 2 3 4 5 6 7 8 9 10 11 12 13 14 15 16 17
000
FTUS46 KLOX 301734
TAFWJF
TAF
KWJF 301734Z 3018/3118 27025G35KT P6SM SCT250
     FM302000 27035G45KT P6SM SCT250
     FM302200 27045G55KT 1/2SM BLDU SCT001
     FM310300 29028G38KT P6SM SKC
     FM310700 30020G30KT P6SM SKC
     FM311300 28014KT P6SM SKC=

USA.gov is the U.S. government's official web portal to all federal, state and local government web resources and services.